createdAt,value
2023-05-08T00:01:38.844Z,0.91
2023-05-08T00:04:06.860Z,0.85
2023-05-08T00:06:34.966Z,0.74
2023-05-08T00:09:02.683Z,0.84
2023-05-08T00:11:30.682Z,0.80
2023-05-08T00:13:58.346Z,0.67
2023-05-08T00:16:26.455Z,0.57
2023-05-08T00:18:54.916Z,0.54
2023-05-08T00:21:22.797Z,0.50
2023-05-08T00:23:50.553Z,0.43
2023-05-08T00:26:18.572Z,0.38
2023-05-08T00:28:46.895Z,0.44
2023-05-08T00:31:15.070Z,0.32
2023-05-08T00:33:42.768Z,0.25
2023-05-08T00:36:11.238Z,0.21
2023-05-08T00:38:38.993Z,0.25
2023-05-08T00:41:07.067Z,0.30
2023-05-08T00:43:35.878Z,0.54
2023-05-08T00:46:04.210Z,0.40
2023-05-08T00:48:34.986Z,0.31
2023-05-08T00:51:06.646Z,0.25
2023-05-08T00:53:37.677Z,0.20
2023-05-08T00:56:06.790Z,0.26
2023-05-08T00:58:34.496Z,0.18
2023-05-08T01:01:03.760Z,0.12
2023-05-08T01:03:32.963Z,0.12
2023-05-08T01:06:01.720Z,0.25
2023-05-08T01:08:29.383Z,0.16
2023-05-08T01:11:43.639Z,0.10
2023-05-08T01:14:22.595Z,0.16
2023-05-08T01:17:05.335Z,0.05
2023-05-08T01:19:54.830Z,0.02
2023-05-08T01:22:23.356Z,-0.05
2023-05-08T01:25:12.654Z,-0.07
2023-05-08T01:27:58.869Z,0.09
2023-05-08T01:31:01.478Z,-0.06
2023-05-08T01:33:56.022Z,-0.15
2023-05-08T01:36:31.572Z,-0.22
2023-05-08T01:39:11.243Z,-0.26
2023-05-08T01:41:41.364Z,-0.26
2023-05-08T01:44:19.852Z,-0.19
2023-05-08T01:46:51.113Z,-0.20
2023-05-08T01:49:30.170Z,-0.13
2023-05-08T01:52:05.835Z,-0.28
2023-05-08T01:54:46.983Z,0.09
2023-05-08T01:57:18.027Z,0.07
2023-05-08T01:59:47.526Z,0.07
2023-05-08T02:02:17.146Z,0.05
2023-05-08T02:04:45.633Z,-0.14
2023-05-08T02:07:14.021Z,-0.17
2023-05-08T02:09:44.154Z,-0.23
2023-05-08T02:12:14.700Z,-0.30
2023-05-08T02:14:45.039Z,-0.36
2023-05-08T02:17:17.240Z,-0.35
2023-05-08T02:19:47.053Z,-0.28
2023-05-08T02:22:16.913Z,-0.21
2023-05-08T02:24:46.635Z,-0.37
2023-05-08T02:27:16.294Z,-0.43
2023-05-08T02:29:44.504Z,-0.51
2023-05-08T02:32:13.281Z,-0.49
2023-05-08T02:34:48.191Z,-0.52
2023-05-08T02:37:24.620Z,-0.61
2023-05-08T02:39:56.075Z,-0.56
2023-05-08T02:42:24.963Z,-0.65
2023-05-08T02:44:52.649Z,-0.58
2023-05-08T02:47:29.920Z,-0.59
2023-05-08T02:50:04.940Z,-0.50
2023-05-08T02:52:47.311Z,-0.59
2023-05-08T02:55:34.467Z,-0.55
2023-05-08T02:58:08.099Z,-0.57
2023-05-08T03:00:52.967Z,-0.43
2023-05-08T03:03:27.429Z,-0.50
2023-05-08T03:05:57.844Z,-0.39
2023-05-08T03:08:30.717Z,-0.32
2023-05-08T03:11:08.426Z,-0.15
2023-05-08T03:13:41.721Z,-0.14
2023-05-08T03:16:17.485Z,-0.23
2023-05-08T03:18:56.968Z,-0.20
2023-05-08T03:21:29.169Z,0.11
2023-05-08T03:24:00.825Z,0.19
2023-05-08T03:26:29.333Z,0.24
2023-05-08T03:28:58.882Z,0.31
2023-05-08T03:31:32.517Z,0.44
2023-05-08T03:34:02.384Z,0.71
2023-05-08T03:36:31.605Z,0.82
2023-05-08T03:39:00.841Z,0.78
2023-05-08T03:41:29.304Z,1.06
2023-05-08T03:43:58.697Z,1.17
2023-05-08T03:46:27.146Z,1.25
2023-05-08T03:49:00.224Z,1.34
2023-05-08T03:51:28.525Z,1.65
2023-05-08T03:53:56.556Z,1.97
2023-05-08T03:56:26.211Z,2.18
2023-05-08T03:59:44.413Z,1.99
2023-05-08T04:02:17.830Z,2.06
2023-05-08T04:04:50.399Z,2.09
2023-05-08T04:07:31.791Z,2.20
2023-05-08T04:10:12.183Z,2.95
2023-05-08T04:12:43.693Z,3.31
2023-05-08T04:15:20.556Z,3.62
2023-05-08T04:18:06.364Z,4.77
2023-05-08T04:20:35.792Z,5.86
2023-05-08T04:23:05.973Z,5.57
2023-05-08T04:25:39.055Z,7.54
2023-05-08T04:28:08.192Z,10.25
2023-05-08T04:30:37.791Z,11.80
2023-05-08T04:33:06.355Z,13.17
2023-05-08T04:35:35.034Z,13.85
2023-05-08T04:38:03.809Z,14.44
2023-05-08T04:40:32.191Z,14.24
2023-05-08T04:43:00.017Z,14.87
2023-05-08T04:45:28.535Z,12.98
2023-05-08T04:47:56.293Z,12.37
2023-05-08T04:50:24.917Z,12.79
2023-05-08T04:52:52.622Z,12.41
2023-05-08T04:55:20.829Z,11.54
2023-05-08T04:57:48.819Z,12.29
2023-05-08T05:00:17.713Z,11.89
2023-05-08T05:02:47.090Z,11.22
2023-05-08T05:05:15.378Z,11.95
2023-05-08T05:07:43.353Z,13.80
2023-05-08T05:10:12.661Z,14.03
2023-05-08T05:12:41.373Z,14.80
2023-05-08T05:15:10.583Z,14.65
2023-05-08T05:17:39.354Z,14.88
2023-05-08T05:20:08.986Z,14.37
2023-05-08T05:22:37.101Z,14.17
2023-05-08T05:25:05.782Z,15.31
2023-05-08T05:27:36.919Z,16.22
2023-05-08T05:32:35.086Z,16.76
2023-05-08T05:35:03.273Z,16.62
2023-05-08T05:37:31.027Z,15.03
2023-05-08T05:39:59.097Z,14.92
2023-05-08T05:42:26.859Z,13.61
2023-05-08T05:44:59.170Z,12.86
2023-05-08T05:47:27.216Z,12.74
2023-05-08T05:49:55.161Z,11.95
2023-05-08T05:52:23.058Z,12.40
2023-05-08T05:54:51.149Z,13.88
2023-05-08T05:57:19.001Z,14.97
2023-05-08T05:59:47.446Z,15.30
2023-05-08T06:02:18.912Z,15.18
2023-05-08T06:04:47.701Z,17.49
2023-05-08T06:07:15.495Z,17.47
2023-05-08T06:09:43.422Z,18.00
2023-05-08T06:12:12.048Z,17.63
2023-05-08T06:14:40.380Z,15.75
2023-05-08T06:17:08.218Z,14.97
2023-05-08T06:19:36.681Z,15.16
2023-05-08T06:22:04.490Z,15.87
2023-05-08T06:24:32.538Z,16.03
2023-05-08T06:27:00.563Z,15.68
2023-05-08T06:29:28.508Z,14.88
2023-05-08T06:31:56.937Z,15.24
2023-05-08T06:34:24.868Z,15.46
2023-05-08T06:36:52.582Z,16.25
2023-05-08T06:39:20.581Z,16.76
2023-05-08T06:41:49.023Z,17.28
2023-05-08T06:44:25.636Z,18.26
2023-05-08T06:46:53.397Z,18.36
2023-05-08T06:49:22.944Z,19.15
2023-05-08T06:51:50.679Z,20.88
2023-05-08T06:54:19.028Z,21.51
2023-05-08T06:56:46.904Z,21.41
2023-05-08T06:59:14.800Z,22.74
2023-05-08T07:01:42.536Z,23.20
2023-05-08T07:04:10.544Z,24.32
2023-05-08T07:06:38.176Z,25.26
2023-05-08T07:09:06.116Z,25.97
2023-05-08T07:11:33.899Z,26.57
2023-05-08T07:14:02.057Z,26.71
2023-05-08T07:16:29.820Z,28.06
2023-05-08T07:18:57.749Z,28.29
2023-05-08T07:21:25.424Z,28.62
2023-05-08T07:23:53.938Z,29.15
2023-05-08T07:26:22.558Z,29.36
2023-05-08T07:28:51.327Z,29.96
2023-05-08T07:31:19.124Z,29.77
2023-05-08T07:33:47.251Z,28.23
2023-05-08T07:36:14.977Z,28.30
2023-05-08T07:38:42.983Z,28.74
2023-05-08T07:41:10.758Z,28.91
2023-05-08T07:43:39.245Z,28.84
2023-05-08T07:46:07.059Z,29.29
2023-05-08T07:48:34.960Z,29.81
2023-05-08T07:51:03.077Z,29.19
2023-05-08T07:53:30.950Z,29.02
2023-05-08T07:55:58.554Z,28.80
2023-05-08T07:58:26.899Z,30.17
2023-05-08T08:00:54.549Z,29.31
2023-05-08T08:03:22.607Z,29.09
2023-05-08T08:05:50.396Z,28.09
2023-05-08T08:08:18.376Z,27.28
2023-05-08T08:10:46.039Z,27.90
2023-05-08T08:13:13.998Z,27.12
2023-05-08T08:15:42.093Z,25.04
2023-05-08T08:18:10.219Z,24.65
2023-05-08T08:20:38.408Z,24.52
2023-05-08T08:23:06.485Z,24.49
2023-05-08T08:25:34.278Z,22.58
2023-05-08T08:28:02.239Z,21.83
2023-05-08T08:30:30.030Z,21.64
2023-05-08T08:33:02.131Z,20.40
2023-05-08T08:35:30.472Z,20.86
2023-05-08T08:37:58.559Z,20.23
2023-05-08T08:40:26.458Z,19.14
2023-05-08T08:42:55.585Z,18.46
2023-05-08T08:45:23.735Z,17.54
2023-05-08T08:47:53.767Z,17.49
2023-05-08T08:50:23.492Z,18.34
2023-05-08T08:53:17.984Z,19.83
2023-05-08T08:55:50.437Z,22.60
2023-05-08T08:58:22.962Z,24.50
2023-05-08T09:00:51.383Z,24.49
2023-05-08T09:03:19.606Z,25.09
2023-05-08T09:05:49.478Z,25.20
2023-05-08T09:08:19.155Z,24.11
2023-05-08T09:10:47.725Z,21.84
2023-05-08T09:13:17.315Z,20.90
2023-05-08T09:15:47.062Z,22.16
2023-05-08T09:18:15.080Z,21.85
2023-05-08T09:20:43.292Z,22.00
2023-05-08T09:23:11.539Z,22.93
2023-05-08T09:25:47.258Z,24.26
2023-05-08T09:28:23.813Z,25.04
2023-05-08T09:30:55.681Z,25.79
2023-05-08T09:33:29.023Z,25.47
2023-05-08T09:35:57.548Z,25.71
2023-05-08T09:38:35.365Z,26.25
2023-05-08T09:41:10.714Z,26.67
2023-05-08T09:43:39.735Z,26.13
2023-05-08T09:46:23.905Z,26.45
2023-05-08T09:48:54.038Z,26.65
2023-05-08T09:51:23.476Z,26.77
2023-05-08T09:53:53.303Z,26.67
2023-05-08T09:56:36.923Z,26.70
2023-05-08T09:59:21.769Z,26.42
2023-05-08T10:01:49.494Z,26.71
2023-05-08T10:04:17.543Z,26.07
2023-05-08T10:06:56.575Z,26.37
2023-05-08T10:09:26.097Z,25.48
2023-05-08T10:11:55.801Z,24.71
2023-05-08T10:14:24.056Z,23.97
2023-05-08T10:16:54.004Z,22.32
2023-05-08T10:19:24.070Z,21.33
2023-05-08T10:21:54.042Z,20.40
2023-05-08T10:24:38.285Z,19.59
2023-05-08T10:27:28.059Z,19.41
2023-05-08T10:30:02.677Z,18.79
2023-05-08T10:32:37.797Z,18.66
2023-05-08T10:35:10.728Z,18.58
2023-05-08T10:37:39.907Z,18.77
2023-05-08T10:40:08.467Z,18.52
2023-05-08T10:42:37.253Z,18.03
2023-05-08T10:45:09.527Z,17.71
2023-05-08T10:47:51.289Z,17.81
2023-05-08T10:50:56.832Z,17.71
2023-05-08T10:53:59.584Z,17.19
2023-05-08T10:56:28.483Z,17.01
2023-05-08T10:58:57.831Z,16.95
2023-05-08T11:01:26.471Z,16.86
2023-05-08T11:03:56.167Z,16.62
2023-05-08T11:06:49.261Z,16.81
2023-05-08T11:09:50.994Z,16.93
2023-05-08T11:12:28.645Z,17.29
2023-05-08T11:15:14.218Z,17.21
2023-05-08T11:17:46.662Z,17.27
2023-05-08T11:20:14.780Z,17.08
2023-05-08T11:22:48.611Z,17.05
2023-05-08T11:25:16.228Z,17.03
2023-05-08T11:27:49.946Z,17.21
2023-05-08T11:30:26.382Z,17.35
2023-05-08T11:32:58.533Z,17.44
2023-05-08T11:35:46.751Z,16.79
2023-05-08T11:38:26.143Z,16.57
2023-05-08T11:41:07.001Z,15.71
2023-05-08T11:43:37.911Z,15.91
2023-05-08T11:46:08.559Z,15.83
2023-05-08T11:48:36.619Z,15.61
2023-05-08T11:51:04.531Z,15.84
2023-05-08T11:53:32.821Z,15.91
2023-05-08T11:56:01.081Z,15.69
2023-05-08T11:58:29.197Z,15.27
2023-05-08T12:00:57.862Z,15.19
2023-05-08T12:03:26.404Z,15.59
2023-05-08T12:05:58.269Z,15.79
2023-05-08T12:08:26.783Z,15.84
2023-05-08T12:10:59.243Z,15.86
2023-05-08T12:13:29.328Z,15.50
2023-05-08T12:16:01.112Z,15.38
2023-05-08T12:18:30.860Z,15.39
2023-05-08T12:21:00.867Z,15.13
2023-05-08T12:23:29.906Z,15.37
2023-05-08T12:26:01.584Z,15.68
2023-05-08T12:28:30.265Z,15.93
2023-05-08T12:30:58.288Z,16.19
2023-05-08T12:33:26.307Z,16.10
2023-05-08T12:35:54.992Z,16.10
2023-05-08T12:38:27.442Z,16.34
2023-05-08T12:40:56.081Z,16.23
2023-05-08T12:43:37.150Z,16.21
2023-05-08T12:46:05.379Z,16.07
2023-05-08T12:48:33.487Z,15.75
2023-05-08T12:51:04.995Z,15.75
2023-05-08T12:53:33.506Z,15.70
2023-05-08T12:56:05.680Z,15.88
2023-05-08T12:58:34.753Z,15.87
2023-05-08T13:01:11.982Z,15.92
2023-05-08T13:03:41.280Z,15.88
2023-05-08T13:06:21.251Z,15.76
2023-05-08T13:08:56.935Z,15.99
2023-05-08T13:11:33.129Z,16.04
2023-05-08T13:14:01.327Z,16.05
2023-05-08T13:16:29.023Z,16.09
2023-05-08T13:18:57.011Z,16.12
2023-05-08T13:21:26.587Z,16.11
2023-05-08T13:23:56.898Z,16.15
2023-05-08T13:26:25.669Z,16.37
2023-05-08T13:28:56.192Z,16.17
2023-05-08T13:31:24.254Z,16.25
2023-05-08T13:33:52.171Z,16.40
2023-05-08T13:36:20.710Z,16.43
2023-05-08T13:38:48.781Z,16.49
2023-05-08T13:41:16.337Z,16.60
2023-05-08T13:43:45.520Z,16.53
2023-05-08T13:46:13.300Z,16.54
2023-05-08T13:48:41.156Z,16.42
2023-05-08T13:51:08.673Z,16.43
2023-05-08T13:53:36.504Z,16.08
2023-05-08T13:56:04.186Z,15.99
2023-05-08T13:58:32.081Z,15.87
2023-05-08T14:01:07.522Z,15.86
2023-05-08T14:03:42.055Z,15.91
2023-05-08T14:06:09.644Z,16.24
2023-05-08T14:08:45.195Z,16.16
2023-05-08T14:11:14.229Z,16.47
2023-05-08T14:13:45.038Z,16.58
2023-05-08T14:16:14.398Z,16.55
2023-05-08T14:18:42.584Z,16.55
2023-05-08T14:21:10.436Z,16.64
2023-05-08T14:23:39.007Z,16.57
2023-05-08T14:26:06.576Z,16.57
2023-05-08T14:28:34.557Z,16.46
2023-05-08T14:31:02.211Z,16.30
2023-05-08T14:33:30.281Z,16.36
2023-05-08T14:35:57.829Z,16.37
2023-05-08T14:38:25.709Z,16.49
2023-05-08T14:40:56.310Z,16.24
2023-05-08T14:43:24.491Z,16.11
2023-05-08T14:45:52.066Z,16.15
2023-05-08T14:48:19.939Z,16.19
2023-05-08T14:50:47.598Z,16.39
2023-05-08T14:53:15.673Z,16.54
2023-05-08T14:55:43.650Z,16.32
2023-05-08T14:58:11.760Z,16.33
2023-05-08T15:00:39.757Z,16.45
2023-05-08T15:03:07.847Z,16.29
2023-05-08T15:05:35.678Z,16.08
2023-05-08T15:08:05.089Z,15.75
2023-05-08T15:10:32.725Z,15.46
2023-05-08T15:13:00.817Z,15.47
2023-05-08T15:15:28.453Z,15.55
2023-05-08T15:17:56.304Z,15.56
2023-05-08T15:20:24.058Z,15.73
2023-05-08T15:22:51.951Z,15.61
2023-05-08T15:25:19.634Z,15.82
2023-05-08T15:27:52.574Z,15.82
2023-05-08T15:30:21.119Z,15.77
2023-05-08T15:32:49.313Z,15.85
2023-05-08T15:35:17.086Z,15.98
2023-05-08T15:37:45.105Z,16.05
2023-05-08T15:40:13.135Z,16.03
2023-05-08T15:42:41.028Z,15.95
2023-05-08T15:45:09.169Z,15.97
2023-05-08T15:47:37.006Z,15.96
2023-05-08T15:50:04.882Z,15.78
2023-05-08T15:52:32.722Z,15.58
2023-05-08T15:55:00.373Z,15.51
2023-05-08T15:57:28.252Z,15.43
2023-05-08T15:59:55.740Z,15.21
2023-05-08T16:02:23.736Z,14.93
2023-05-08T16:04:51.653Z,14.67
2023-05-08T16:07:19.556Z,14.61
2023-05-08T16:09:47.331Z,14.38
2023-05-08T16:12:15.253Z,14.23
2023-05-08T16:14:42.939Z,14.14
2023-05-08T16:17:10.921Z,14.24
2023-05-08T16:19:39.724Z,14.27
2023-05-08T16:22:07.807Z,14.45
2023-05-08T16:24:35.322Z,14.60
2023-05-08T16:27:03.497Z,14.67
2023-05-08T16:29:31.085Z,14.61
2023-05-08T16:31:59.227Z,14.68
2023-05-08T16:34:26.859Z,14.67
2023-05-08T16:36:54.700Z,14.59
2023-05-08T16:39:22.356Z,14.46
2023-05-08T16:41:50.314Z,14.72
2023-05-08T16:44:17.908Z,14.57
2023-05-08T16:46:45.818Z,14.52
2023-05-08T16:49:14.254Z,14.63
2023-05-08T16:51:42.068Z,14.60
2023-05-08T16:54:09.707Z,14.54
2023-05-08T16:56:37.559Z,14.45
2023-05-08T16:59:06.683Z,14.42
2023-05-08T17:01:34.889Z,14.27
2023-05-08T17:04:02.567Z,14.18
2023-05-08T17:06:30.423Z,14.20
2023-05-08T17:08:57.940Z,13.95
2023-05-08T17:11:25.863Z,14.01
2023-05-08T17:13:53.442Z,13.94
2023-05-08T17:16:21.464Z,13.78
2023-05-08T17:18:49.062Z,13.70
2023-05-08T17:21:16.911Z,13.69
2023-05-08T17:23:45.760Z,13.69
2023-05-08T17:26:13.899Z,13.59
2023-05-08T17:28:41.564Z,13.71
2023-05-08T17:31:09.660Z,13.40
2023-05-08T17:33:37.831Z,13.30
2023-05-08T17:36:06.185Z,13.29
2023-05-08T17:38:36.356Z,13.17
2023-05-08T17:41:04.336Z,13.02
2023-05-08T17:43:32.096Z,12.85
2023-05-08T17:46:00.138Z,12.65
2023-05-08T17:48:27.872Z,12.38
2023-05-08T17:50:55.798Z,12.23
2023-05-08T17:53:23.467Z,12.02
2023-05-08T17:55:51.509Z,11.99
2023-05-08T17:58:19.190Z,11.89
2023-05-08T18:00:47.210Z,11.64
2023-05-08T18:03:15.111Z,11.41
2023-05-08T18:05:43.704Z,11.19
2023-05-08T18:08:11.474Z,10.95
2023-05-08T18:10:39.667Z,10.87
2023-05-08T18:13:07.719Z,10.68
2023-05-08T18:15:38.940Z,10.54
2023-05-08T18:18:06.819Z,10.29
2023-05-08T18:20:35.043Z,10.16
2023-05-08T18:23:02.696Z,10.07
2023-05-08T18:25:30.731Z,9.87
2023-05-08T18:27:59.038Z,9.74
2023-05-08T18:30:27.045Z,9.59
2023-05-08T18:32:54.817Z,9.47
2023-05-08T18:35:22.929Z,9.27
2023-05-08T18:37:50.567Z,9.30
2023-05-08T18:40:18.568Z,9.17
2023-05-08T18:42:46.302Z,8.97
2023-05-08T18:45:14.322Z,8.81
2023-05-08T18:47:42.074Z,8.68
2023-05-08T18:50:10.703Z,8.79
2023-05-08T18:52:38.922Z,8.60
2023-05-08T18:55:07.437Z,8.43
2023-05-08T18:57:35.317Z,8.27
2023-05-08T19:00:04.171Z,8.11
2023-05-08T19:02:31.904Z,8.06
2023-05-08T19:05:00.837Z,7.93
2023-05-08T19:07:28.504Z,7.89
2023-05-08T19:09:56.589Z,7.82
2023-05-08T19:12:24.416Z,7.84
2023-05-08T19:14:54.004Z,7.70
2023-05-08T19:17:22.097Z,7.52
2023-05-08T19:19:53.354Z,7.43
2023-05-08T19:22:21.126Z,7.32
2023-05-08T19:24:49.065Z,7.14
2023-05-08T19:27:16.856Z,7.11
2023-05-08T19:29:44.811Z,7.05
2023-05-08T19:32:12.533Z,6.96
2023-05-08T19:34:40.571Z,7.00
2023-05-08T19:37:08.300Z,6.84
2023-05-08T19:39:36.285Z,6.82
2023-05-08T19:42:04.083Z,6.77
2023-05-08T19:44:32.940Z,6.59
2023-05-08T19:47:03.630Z,6.53
2023-05-08T19:49:32.030Z,6.51
2023-05-08T19:51:59.717Z,6.43
2023-05-08T19:54:28.620Z,6.48
2023-05-08T19:56:56.691Z,6.31
2023-05-08T19:59:24.958Z,6.26
2023-05-08T20:01:53.905Z,6.25
2023-05-08T20:04:22.111Z,6.25
2023-05-08T20:06:49.971Z,6.23
2023-05-08T20:09:17.991Z,6.20
2023-05-08T20:11:47.132Z,6.11
2023-05-08T20:14:15.153Z,5.94
2023-05-08T20:16:43.560Z,5.83
2023-05-08T20:19:11.799Z,5.75
2023-05-08T20:21:39.555Z,5.82
2023-05-08T20:24:07.672Z,5.62
2023-05-08T20:26:35.440Z,5.51
2023-05-08T20:29:03.517Z,5.52
2023-05-08T20:31:31.332Z,5.40
2023-05-08T20:33:59.802Z,5.26
2023-05-08T20:36:27.619Z,5.22
2023-05-08T20:38:55.607Z,5.30
2023-05-08T20:41:23.225Z,5.40
2023-05-08T20:43:51.292Z,5.26
2023-05-08T20:46:19.097Z,5.32
2023-05-08T20:48:47.251Z,5.28
2023-05-08T20:51:15.981Z,5.33
2023-05-08T20:53:43.988Z,5.13
2023-05-08T20:56:11.948Z,5.13
2023-05-08T20:58:40.008Z,5.10
2023-05-08T21:01:07.766Z,4.92
2023-05-08T21:03:35.820Z,4.96
2023-05-08T21:06:03.600Z,5.10
2023-05-08T21:08:31.549Z,5.01
2023-05-08T21:11:00.890Z,4.85
2023-05-08T21:13:28.828Z,4.94
2023-05-08T21:15:56.575Z,5.02
2023-05-08T21:18:24.703Z,4.84
2023-05-08T21:20:52.518Z,4.73
2023-05-08T21:23:21.002Z,4.69
2023-05-08T21:25:49.749Z,4.67
2023-05-08T21:28:17.947Z,4.53
2023-05-08T21:30:46.352Z,4.37
2023-05-08T21:33:14.682Z,4.42
2023-05-08T21:35:43.437Z,4.49
2023-05-08T21:38:14.441Z,4.53
2023-05-08T21:40:42.166Z,4.50
2023-05-08T21:43:10.248Z,4.35
2023-05-08T21:45:37.988Z,4.28
2023-05-08T21:48:06.190Z,4.17
2023-05-08T21:50:34.022Z,4.13
2023-05-08T21:53:02.049Z,4.04
2023-05-08T21:55:32.157Z,3.97
2023-05-08T21:58:00.430Z,4.01
2023-05-08T22:00:28.197Z,3.92
2023-05-08T22:02:56.315Z,3.95
2023-05-08T22:05:24.521Z,3.94
2023-05-08T22:07:52.646Z,3.87
2023-05-08T22:10:21.696Z,3.82
2023-05-08T22:12:49.825Z,3.71
2023-05-08T22:15:28.954Z,3.67
2023-05-08T22:17:58.740Z,3.71
2023-05-08T22:20:26.734Z,3.68
2023-05-08T22:22:54.837Z,3.69
2023-05-08T22:25:22.581Z,3.62
2023-05-08T22:27:50.786Z,3.63
2023-05-08T22:30:18.609Z,3.64
2023-05-08T22:32:52.899Z,3.65
2023-05-08T22:35:22.287Z,3.60
2023-05-08T22:37:50.615Z,3.52
2023-05-08T22:40:18.449Z,3.44
2023-05-08T22:42:46.651Z,3.47
2023-05-08T22:45:15.053Z,3.33
2023-05-08T22:47:43.483Z,3.29
2023-05-08T22:50:11.900Z,3.30
2023-05-08T22:52:40.333Z,3.19
2023-05-08T22:55:08.441Z,3.22
2023-05-08T22:57:36.608Z,3.16
2023-05-08T23:00:06.094Z,3.19
2023-05-08T23:02:35.094Z,3.13
2023-05-08T23:05:03.915Z,3.17
2023-05-08T23:07:31.928Z,3.26
2023-05-08T23:09:59.541Z,3.25
2023-05-08T23:12:27.595Z,3.20
2023-05-08T23:14:55.282Z,3.10
2023-05-08T23:17:23.494Z,3.04
2023-05-08T23:19:51.229Z,3.02
2023-05-08T23:22:19.106Z,2.84
2023-05-08T23:24:46.869Z,2.70
2023-05-08T23:27:14.900Z,2.97
2023-05-08T23:29:42.617Z,2.93
2023-05-08T23:32:10.519Z,2.76
2023-05-08T23:34:38.113Z,2.66
2023-05-08T23:37:06.365Z,2.61
2023-05-08T23:39:37.811Z,2.60
2023-05-08T23:42:05.848Z,2.69
2023-05-08T23:44:33.470Z,2.69
2023-05-08T23:47:01.640Z,2.66
2023-05-08T23:49:29.327Z,2.60
2023-05-08T23:51:57.277Z,2.55
2023-05-08T23:54:25.709Z,2.56
2023-05-08T23:56:53.735Z,2.41
2023-05-08T23:59:21.511Z,2.44
